createdAt,value
2022-08-25T00:03:06.544Z,100618.34
2022-08-25T00:08:09.745Z,100596.09
2022-08-25T00:13:12.727Z,100609.81
2022-08-25T00:18:19.676Z,100628.75
2022-08-25T00:23:23.285Z,100616.56
2022-08-25T00:28:26.226Z,100621.97
2022-08-25T00:33:31.285Z,100610.59
2022-08-25T00:38:34.322Z,100616.56
2022-08-25T00:43:47.710Z,100613.16
2022-08-25T00:49:06.950Z,100619.34
2022-08-25T00:54:20.538Z,100613.38
2022-08-25T00:59:25.102Z,100605.84
2022-08-25T01:04:27.737Z,100606.44
2022-08-25T01:09:32.711Z,100608.88
2022-08-25T01:14:37.150Z,100610.69
2022-08-25T01:19:40.051Z,100613.38
2022-08-25T01:24:56.937Z,100599.53
2022-08-25T01:29:59.604Z,100603.91
2022-08-25T01:35:02.247Z,100609.09
2022-08-25T01:40:06.861Z,100613.38
2022-08-25T01:45:10.634Z,100602.28
2022-08-25T01:50:13.497Z,100616.88
2022-08-25T01:55:16.380Z,100607.34
2022-08-25T02:00:21.044Z,100602.94
2022-08-25T02:05:24.014Z,100613.38
2022-08-25T02:10:26.754Z,100603.00
2022-08-25T02:15:29.508Z,100612.63
2022-08-25T02:20:32.209Z,100617.56
2022-08-25T02:25:35.084Z,100620.72
2022-08-25T02:30:39.702Z,100620.84
2022-08-25T02:35:42.364Z,100625.06
2022-08-25T02:40:45.037Z,100603.50
2022-08-25T02:45:47.868Z,100611.97
2022-08-25T02:50:52.971Z,100603.47
2022-08-25T02:55:56.256Z,100602.09
2022-08-25T03:00:59.022Z,100576.88
2022-08-25T03:06:01.805Z,100601.78
2022-08-25T03:11:05.616Z,100606.19
2022-08-25T03:16:11.182Z,100604.50
2022-08-25T03:21:16.232Z,100586.00
2022-08-25T03:26:37.649Z,100598.31
2022-08-25T03:31:40.341Z,100600.44
2022-08-25T03:36:44.887Z,100577.16
2022-08-25T03:41:47.658Z,100573.22
2022-08-25T03:46:52.520Z,100580.44
2022-08-25T03:51:55.261Z,100589.59
2022-08-25T03:56:58.182Z,100570.91
2022-08-25T04:02:01.918Z,100584.88
2022-08-25T04:07:04.779Z,100575.47
2022-08-25T04:12:10.504Z,100555.69
2022-08-25T04:17:13.256Z,100558.78
2022-08-25T04:22:15.884Z,100560.50
2022-08-25T04:27:19.132Z,100558.56
2022-08-25T04:32:21.848Z,100562.81
2022-08-25T04:37:24.562Z,100551.31
2022-08-25T04:42:27.490Z,100554.69
2022-08-25T04:47:30.160Z,100534.94
2022-08-25T04:52:33.549Z,100551.41
2022-08-25T04:57:36.368Z,100546.44
2022-08-25T05:02:39.084Z,100520.94
2022-08-25T05:07:43.176Z,100544.69
2022-08-25T05:12:46.154Z,100545.53
2022-08-25T05:17:52.626Z,100539.28
2022-08-25T05:22:59.222Z,100524.63
2022-08-25T05:28:02.180Z,100537.41
2022-08-25T05:33:05.321Z,100509.59
2022-08-25T05:38:08.150Z,100513.72
2022-08-25T05:43:18.342Z,100531.94
2022-08-25T05:48:21.193Z,100492.88
2022-08-25T05:53:25.342Z,100518.47
2022-08-25T05:58:29.476Z,100488.03
2022-08-25T06:03:32.228Z,100508.09
2022-08-25T06:08:34.941Z,100518.19
2022-08-25T06:13:39.354Z,100509.19
2022-08-25T06:18:42.059Z,100518.00
2022-08-25T06:23:44.770Z,100508.59
2022-08-25T06:28:47.509Z,100514.75
2022-08-25T06:33:50.980Z,100511.00
2022-08-25T06:38:53.931Z,100491.56
2022-08-25T06:44:04.953Z,100507.69
2022-08-25T06:49:08.372Z,100508.47
2022-08-25T06:54:11.109Z,100484.25
2022-08-25T06:59:14.042Z,100487.41
2022-08-25T07:04:16.703Z,100480.00
2022-08-25T07:09:19.881Z,100474.78
2022-08-25T07:14:23.172Z,100488.34
2022-08-25T07:19:26.345Z,100479.56
2022-08-25T07:24:28.957Z,100480.22
2022-08-25T07:29:34.118Z,100476.88
2022-08-25T07:34:55.372Z,100466.38
2022-08-25T07:40:02.032Z,100468.00
2022-08-25T07:45:08.337Z,100453.81
2022-08-25T07:50:13.372Z,100470.69
2022-08-25T07:55:17.848Z,100454.41
2022-08-25T08:00:21.724Z,100461.34
2022-08-25T08:05:26.478Z,100456.47
2022-08-25T08:10:47.921Z,100440.78
2022-08-25T08:15:53.564Z,100438.91
2022-08-25T08:20:56.789Z,100440.97
2022-08-25T08:25:59.440Z,100432.25
2022-08-25T08:31:03.003Z,100429.75
2022-08-25T08:36:11.139Z,100412.28
2022-08-25T08:47:44.581Z,100418.59
2022-08-25T08:52:50.135Z,100415.53
2022-08-25T08:57:56.035Z,100412.28
2022-08-25T09:03:13.024Z,100408.34
2022-08-25T09:08:20.351Z,100406.66
2022-08-25T09:13:39.807Z,100405.13
2022-08-25T09:19:21.117Z,100389.34
2022-08-25T09:24:36.200Z,100401.16
2022-08-25T09:30:00.403Z,100394.72
2022-08-25T09:35:04.989Z,100379.31
2022-08-25T09:40:08.542Z,100382.84
2022-08-25T09:45:13.727Z,100383.06
2022-08-25T09:50:20.096Z,100366.66
2022-08-25T09:55:34.458Z,100369.25
2022-08-25T10:00:38.292Z,100362.47
2022-08-25T10:05:58.933Z,100358.81
2022-08-25T10:11:08.734Z,100338.34
2022-08-25T10:16:17.682Z,100356.13
2022-08-25T10:21:27.730Z,100351.72
2022-08-25T10:26:48.241Z,100348.56
2022-08-25T10:32:12.284Z,100327.66
2022-08-25T10:37:33.295Z,100341.78
2022-08-25T10:42:57.423Z,100332.44
2022-08-25T10:48:18.238Z,100315.19
2022-08-25T10:53:29.425Z,100328.19
2022-08-25T10:58:59.893Z,100316.19
2022-08-25T11:04:13.874Z,100317.72
2022-08-25T11:09:23.871Z,100300.72
2022-08-25T11:15:13.794Z,100302.25
2022-08-25T11:20:26.838Z,100285.66
2022-08-25T11:25:35.777Z,100293.03
2022-08-25T11:30:40.474Z,100292.91
2022-08-25T11:36:00.600Z,100276.09
2022-08-25T11:41:35.056Z,100271.72
2022-08-25T11:46:52.950Z,100251.22
2022-08-25T11:51:55.699Z,100275.00
2022-08-25T11:57:09.000Z,100273.28
2022-08-25T12:02:34.511Z,100269.53
2022-08-25T12:08:24.401Z,100267.28
2022-08-25T12:13:42.664Z,100259.97
2022-08-25T12:18:46.458Z,100257.19
2022-08-25T12:24:10.996Z,100242.63
2022-08-25T12:29:22.473Z,100230.41
2022-08-25T12:35:01.666Z,100239.47
2022-08-25T12:40:06.912Z,100219.66
2022-08-25T12:45:35.427Z,100203.56
2022-08-25T12:50:48.303Z,100229.28
2022-08-25T12:55:57.981Z,100218.28
2022-08-25T13:01:35.768Z,100217.81
2022-08-25T13:07:02.559Z,100215.19
2022-08-25T13:12:31.533Z,100218.47
2022-08-25T13:17:36.359Z,100214.84
2022-08-25T13:22:55.246Z,100206.63
2022-08-25T13:28:04.555Z,100202.22
2022-08-25T13:33:23.124Z,100200.59
2022-08-25T13:38:27.180Z,100178.69
2022-08-25T13:43:31.726Z,100194.41
2022-08-25T13:48:37.240Z,100192.47
2022-08-25T13:53:41.310Z,100179.25
2022-08-25T13:58:45.627Z,100173.22
2022-08-25T14:03:49.161Z,100162.91
2022-08-25T14:08:58.099Z,100187.19
2022-08-25T14:14:09.554Z,100175.75
2022-08-25T14:19:19.894Z,100173.34
2022-08-25T14:24:23.714Z,100177.38
2022-08-25T14:29:26.897Z,100172.16
2022-08-25T14:34:34.977Z,100163.97
2022-08-25T14:39:37.774Z,100168.00
2022-08-25T14:44:40.972Z,100162.06
2022-08-25T14:49:45.915Z,100142.28
2022-08-25T14:54:48.608Z,100155.41
2022-08-25T14:59:51.976Z,100152.81
2022-08-25T15:04:58.937Z,100154.59
2022-08-25T15:10:02.009Z,100130.84
2022-08-25T15:15:06.784Z,100141.22
2022-08-25T15:20:11.117Z,100143.22
2022-08-25T15:25:14.700Z,100126.03
2022-08-25T15:30:17.509Z,100136.38
2022-08-25T15:35:21.837Z,100134.16
2022-08-25T15:40:31.969Z,100138.31
2022-08-25T15:45:36.397Z,100129.66
2022-08-25T15:50:39.389Z,100109.22
2022-08-25T15:55:42.061Z,100137.97
2022-08-25T16:00:46.341Z,100139.78
2022-08-25T16:05:59.080Z,100145.00
2022-08-25T16:11:01.864Z,100138.97
2022-08-25T16:16:04.889Z,100145.22
2022-08-25T16:21:14.427Z,100155.38
2022-08-25T16:26:17.020Z,100137.78
2022-08-25T16:31:20.851Z,100146.66
2022-08-25T16:36:27.138Z,100149.28
2022-08-25T16:41:35.714Z,100156.22
2022-08-25T16:46:40.749Z,100162.22
2022-08-25T16:51:43.746Z,100156.16
2022-08-25T16:56:46.834Z,100165.34
2022-08-25T17:01:54.547Z,100163.34
2022-08-25T17:06:57.351Z,100171.16
2022-08-25T17:12:00.800Z,100170.25
2022-08-25T17:17:04.076Z,100171.59
2022-08-25T17:22:14.229Z,100178.59
2022-08-25T17:27:18.601Z,100158.13
2022-08-25T17:32:21.610Z,100165.72
2022-08-25T17:37:31.834Z,100162.28
2022-08-25T17:42:34.546Z,100179.03
2022-08-25T17:47:37.219Z,100173.91
2022-08-25T17:52:39.983Z,100175.38
2022-08-25T17:57:43.314Z,100181.22
2022-08-25T18:02:47.023Z,100152.53
2022-08-25T18:07:50.277Z,100172.69
2022-08-25T18:12:54.201Z,100176.84
2022-08-25T18:17:57.268Z,100158.53
2022-08-25T18:23:00.739Z,100159.84
2022-08-25T18:28:04.365Z,100180.78
2022-08-25T18:33:07.468Z,100158.03
2022-08-25T18:38:29.141Z,100151.97
2022-08-25T18:43:33.900Z,100171.97
2022-08-25T18:48:37.382Z,100176.06
2022-08-25T18:53:50.473Z,100173.75
2022-08-25T18:58:53.797Z,100177.13
2022-08-25T19:03:57.014Z,100169.34
2022-08-25T19:09:00.117Z,100170.69
2022-08-25T19:14:03.389Z,100170.06
2022-08-25T19:19:15.549Z,100154.03
2022-08-25T19:24:19.318Z,100171.00
2022-08-25T19:29:23.148Z,100154.66
2022-08-25T19:34:31.312Z,100162.69
2022-08-25T19:39:36.199Z,100162.81
2022-08-25T19:44:42.219Z,100161.59
2022-08-25T19:49:46.324Z,100154.09
2022-08-25T19:54:50.048Z,100144.19
2022-08-25T19:59:55.084Z,100147.69
2022-08-25T20:05:02.538Z,100157.41
2022-08-25T20:10:09.848Z,100142.59
2022-08-25T20:15:16.926Z,100151.16
2022-08-25T20:20:22.497Z,100144.06
2022-08-25T20:25:26.701Z,100145.69
2022-08-25T20:30:39.918Z,100145.34
2022-08-25T20:35:47.251Z,100134.13
2022-08-25T20:40:50.087Z,100144.13
2022-08-25T20:46:00.783Z,100150.63
2022-08-25T20:51:09.060Z,100152.03
2022-08-25T20:56:15.161Z,100150.34
2022-08-25T21:01:37.593Z,100146.97
2022-08-25T21:06:41.028Z,100151.38
2022-08-25T21:11:45.174Z,100153.13
2022-08-25T21:16:50.880Z,100148.72
2022-08-25T21:21:54.564Z,100159.13
2022-08-25T21:27:04.671Z,100153.06
2022-08-25T21:32:07.458Z,100150.19
2022-08-25T21:37:10.165Z,100158.94
2022-08-25T21:42:13.750Z,100153.69
2022-08-25T21:47:21.131Z,100159.75
2022-08-25T21:52:24.846Z,100160.09
2022-08-25T21:57:27.712Z,100165.78
2022-08-25T22:02:30.656Z,100140.66
2022-08-25T22:07:34.767Z,100162.16
2022-08-25T22:12:43.018Z,100159.59
2022-08-25T22:17:48.165Z,100161.31
2022-08-25T22:22:50.981Z,100161.50
2022-08-25T22:27:56.697Z,100157.34
2022-08-25T22:32:59.944Z,100149.34
2022-08-25T22:38:03.430Z,100145.56
2022-08-25T22:43:09.106Z,100130.38
2022-08-25T22:48:13.626Z,100152.81
2022-08-25T22:53:16.212Z,100144.06
2022-08-25T22:58:18.989Z,100139.38
2022-08-25T23:03:21.818Z,100163.69
2022-08-25T23:08:38.949Z,100135.13
2022-08-25T23:13:43.602Z,100166.22
2022-08-25T23:18:46.964Z,100152.53
2022-08-25T23:23:49.646Z,100161.13
2022-08-25T23:28:52.599Z,100167.91
2022-08-25T23:33:57.765Z,100140.66
2022-08-25T23:39:00.913Z,100154.53
2022-08-25T23:44:05.452Z,100143.56
2022-08-25T23:49:08.842Z,100164.00
2022-08-25T23:54:12.332Z,100160.03
2022-08-25T23:59:15.678Z,100169.63
